createdAt,value
2022-11-18T00:01:15.752Z,13.25
2022-11-18T00:03:43.878Z,13.24
2022-11-18T00:06:14.217Z,13.24
2022-11-18T00:08:41.930Z,13.23
2022-11-18T00:11:39.347Z,13.25
2022-11-18T00:14:23.182Z,13.24
2022-11-18T00:16:53.185Z,13.25
2022-11-18T00:19:25.037Z,13.27
2022-11-18T00:21:52.239Z,13.29
2022-11-18T00:24:19.257Z,13.30
2022-11-18T00:26:46.133Z,13.31
2022-11-18T00:29:13.482Z,13.28
2022-11-18T00:31:40.264Z,13.28
2022-11-18T00:34:07.883Z,13.24
2022-11-18T00:36:34.578Z,13.24
2022-11-18T00:39:05.561Z,13.24
2022-11-18T00:41:58.402Z,13.24
2022-11-18T00:44:25.467Z,13.21
2022-11-18T00:46:53.111Z,13.21
2022-11-18T00:49:19.913Z,13.20
2022-11-18T00:51:46.711Z,13.22
2022-11-18T00:54:13.545Z,13.22
2022-11-18T00:56:40.267Z,13.23
2022-11-18T00:59:07.251Z,13.23
2022-11-18T01:01:34.243Z,13.24
2022-11-18T01:04:01.068Z,13.28
2022-11-18T01:06:29.442Z,13.29
2022-11-18T01:08:56.316Z,13.31
2022-11-18T01:11:41.414Z,13.30
2022-11-18T01:14:08.148Z,13.31
2022-11-18T01:16:34.868Z,13.30
2022-11-18T01:19:02.170Z,13.29
2022-11-18T01:21:29.660Z,13.27
2022-11-18T01:23:56.449Z,13.25
2022-11-18T01:26:23.131Z,13.22
2022-11-18T01:28:49.991Z,13.17
2022-11-18T01:31:19.466Z,13.12
2022-11-18T01:33:47.046Z,13.08
2022-11-18T01:36:27.159Z,13.01
2022-11-18T01:38:55.030Z,12.96
2022-11-18T01:41:25.941Z,12.92
2022-11-18T01:44:06.559Z,12.86
2022-11-18T01:46:34.510Z,12.80
2022-11-18T01:49:07.681Z,12.77
2022-11-18T01:51:47.337Z,12.73
2022-11-18T01:54:26.744Z,12.67
2022-11-18T01:57:01.842Z,12.61
2022-11-18T01:59:36.011Z,12.56
2022-11-18T02:02:11.084Z,12.51
2022-11-18T02:04:41.984Z,12.45
2022-11-18T02:07:10.302Z,12.40
2022-11-18T02:09:38.461Z,12.36
2022-11-18T02:12:07.867Z,12.32
2022-11-18T02:14:40.019Z,12.27
2022-11-18T02:17:45.712Z,12.23
2022-11-18T02:20:42.497Z,12.16
2022-11-18T02:23:53.627Z,12.12
2022-11-18T02:27:08.342Z,12.08
2022-11-18T02:29:45.260Z,12.03
2022-11-18T02:32:24.777Z,12.02
2022-11-18T02:35:14.599Z,12.00
2022-11-18T02:37:58.639Z,11.96
2022-11-18T02:40:39.505Z,11.96
2022-11-18T02:43:16.961Z,11.94
2022-11-18T02:45:51.076Z,11.93
2022-11-18T02:48:22.137Z,11.91
2022-11-18T02:50:51.689Z,11.91
2022-11-18T02:53:21.572Z,11.89
2022-11-18T02:55:49.797Z,11.86
2022-11-18T02:58:20.358Z,11.85
2022-11-18T03:00:59.441Z,11.85
2022-11-18T03:03:33.241Z,11.85
2022-11-18T03:06:36.929Z,11.87
2022-11-18T03:09:14.477Z,11.87
2022-11-18T03:12:25.210Z,11.88
2022-11-18T03:15:13.437Z,11.88
2022-11-18T03:18:19.253Z,11.90
2022-11-18T03:21:06.399Z,11.91
2022-11-18T03:23:41.346Z,11.94
2022-11-18T03:26:23.036Z,11.97
2022-11-18T03:29:05.689Z,12.02
2022-11-18T03:31:45.212Z,12.07
2022-11-18T03:34:25.328Z,12.10
2022-11-18T03:37:01.117Z,12.16
2022-11-18T03:39:33.955Z,12.20
2022-11-18T03:42:14.382Z,12.24
2022-11-18T03:44:52.513Z,12.28
2022-11-18T03:47:46.516Z,12.32
2022-11-18T03:50:30.551Z,12.36
2022-11-18T03:52:59.742Z,12.37
2022-11-18T03:55:41.230Z,12.43
2022-11-18T03:58:42.790Z,12.46
2022-11-18T04:01:18.462Z,12.46
2022-11-18T04:03:45.328Z,12.51
2022-11-18T04:06:38.250Z,12.53
2022-11-18T04:09:17.326Z,12.56
2022-11-18T04:12:04.031Z,12.59
2022-11-18T04:14:40.994Z,12.62
2022-11-18T04:17:17.812Z,12.65
2022-11-18T04:19:44.587Z,12.70
2022-11-18T04:22:12.066Z,12.73
2022-11-18T04:24:39.448Z,12.77
2022-11-18T04:27:07.924Z,12.80
2022-11-18T04:29:34.940Z,12.83
2022-11-18T04:32:03.236Z,12.87
2022-11-18T04:34:30.792Z,12.89
2022-11-18T04:36:58.659Z,12.93
2022-11-18T04:39:25.457Z,12.95
2022-11-18T04:41:58.264Z,12.98
2022-11-18T04:44:30.349Z,12.99
2022-11-18T04:46:59.871Z,13.02
2022-11-18T04:49:27.572Z,13.03
2022-11-18T04:51:55.602Z,13.07
2022-11-18T04:54:24.193Z,13.11
2022-11-18T04:56:51.508Z,13.12
2022-11-18T04:59:26.232Z,13.13
2022-11-18T05:01:54.414Z,13.15
2022-11-18T05:04:35.621Z,13.15
2022-11-18T05:07:36.756Z,13.17
2022-11-18T05:10:31.350Z,13.15
2022-11-18T05:12:58.120Z,13.19
2022-11-18T05:15:24.922Z,13.21
2022-11-18T05:17:51.744Z,13.24
2022-11-18T05:20:18.616Z,13.27
2022-11-18T05:22:45.347Z,13.32
2022-11-18T05:25:12.107Z,13.34
2022-11-18T05:27:38.809Z,13.37
2022-11-18T05:30:06.401Z,13.37
2022-11-18T05:32:33.073Z,13.40
2022-11-18T05:34:59.826Z,13.42
2022-11-18T05:37:26.573Z,13.45
2022-11-18T05:39:53.305Z,13.47
2022-11-18T05:42:38.783Z,13.49
2022-11-18T05:45:06.738Z,13.50
2022-11-18T05:47:53.398Z,13.53
2022-11-18T05:50:21.577Z,13.54
2022-11-18T05:52:48.430Z,13.54
2022-11-18T05:55:17.877Z,13.56
2022-11-18T05:57:44.642Z,13.58
2022-11-18T06:00:12.456Z,13.58
2022-11-18T06:02:42.304Z,13.59
2022-11-18T06:05:11.388Z,13.59
2022-11-18T06:07:47.037Z,13.57
2022-11-18T06:10:26.475Z,13.56
2022-11-18T06:12:59.801Z,13.55
2022-11-18T06:15:32.783Z,13.53
2022-11-18T06:18:11.284Z,13.51
2022-11-18T06:20:41.221Z,13.48
2022-11-18T06:23:08.064Z,13.45
2022-11-18T06:25:39.178Z,13.43
2022-11-18T06:28:06.875Z,13.40
2022-11-18T06:30:33.567Z,13.39
2022-11-18T06:33:00.312Z,13.38
2022-11-18T06:35:27.099Z,13.38
2022-11-18T06:37:53.781Z,13.37
2022-11-18T06:40:20.516Z,13.35
2022-11-18T06:43:06.005Z,13.34
2022-11-18T06:45:32.709Z,13.34
2022-11-18T06:48:04.104Z,13.30
2022-11-18T06:50:31.285Z,13.29
2022-11-18T06:53:00.500Z,13.26
2022-11-18T06:55:27.217Z,13.22
2022-11-18T06:57:56.739Z,13.21
2022-11-18T07:00:23.552Z,13.19
2022-11-18T07:02:50.245Z,13.17
2022-11-18T07:05:17.022Z,13.14
2022-11-18T07:07:43.749Z,13.12
2022-11-18T07:10:10.557Z,13.10
2022-11-18T07:12:37.392Z,13.09
2022-11-18T07:15:04.457Z,13.06
2022-11-18T07:17:31.763Z,13.04
2022-11-18T07:19:58.526Z,13.03
2022-11-18T07:22:25.280Z,13.01
2022-11-18T07:24:52.007Z,13.00
2022-11-18T07:27:18.726Z,13.01
2022-11-18T07:29:45.443Z,12.99
2022-11-18T07:32:12.112Z,13.00
2022-11-18T07:34:38.983Z,12.99
2022-11-18T07:37:05.671Z,13.02
2022-11-18T07:39:32.401Z,13.03
2022-11-18T07:41:59.273Z,13.07
2022-11-18T07:44:25.974Z,13.10
2022-11-18T07:46:52.777Z,13.14
2022-11-18T07:49:19.903Z,13.23
2022-11-18T07:51:46.777Z,13.44
2022-11-18T07:54:17.256Z,13.79
2022-11-18T07:56:44.128Z,14.25
2022-11-18T07:59:10.950Z,14.80
2022-11-18T08:01:37.783Z,15.37
2022-11-18T08:04:11.471Z,15.93
2022-11-18T08:06:39.998Z,16.38
2022-11-18T08:09:08.283Z,16.73
2022-11-18T08:11:35.812Z,17.06
2022-11-18T08:14:02.616Z,17.40
2022-11-18T08:16:29.637Z,17.87
2022-11-18T08:18:58.661Z,18.34
2022-11-18T08:21:25.365Z,18.79
2022-11-18T08:23:55.140Z,19.16
2022-11-18T08:26:23.158Z,19.49
2022-11-18T08:28:50.062Z,19.92
2022-11-18T08:31:26.338Z,20.40
2022-11-18T08:34:05.739Z,20.98
2022-11-18T08:36:36.158Z,21.59
2022-11-18T08:39:08.179Z,22.18
2022-11-18T08:41:37.674Z,22.74
2022-11-18T08:44:06.479Z,23.26
2022-11-18T08:46:33.690Z,23.75
2022-11-18T08:49:00.627Z,24.25
2022-11-18T08:51:29.884Z,24.60
2022-11-18T08:53:56.859Z,24.97
2022-11-18T08:56:25.132Z,25.34
2022-11-18T08:58:53.225Z,25.68
2022-11-18T09:01:20.191Z,26.01
2022-11-18T09:03:48.402Z,26.38
2022-11-18T09:06:19.757Z,26.79
2022-11-18T09:08:47.474Z,27.19
2022-11-18T09:11:17.918Z,27.55
2022-11-18T09:14:25.999Z,27.92
2022-11-18T09:16:35.147Z,28.33
2022-11-18T09:19:18.624Z,28.67
2022-11-18T09:21:49.010Z,29.03
2022-11-18T09:24:16.281Z,29.37
2022-11-18T09:26:43.249Z,29.63
2022-11-18T09:29:11.618Z,29.90
2022-11-18T09:31:38.352Z,30.13
2022-11-18T09:34:05.352Z,30.39
2022-11-18T09:36:32.051Z,30.61
2022-11-18T09:39:00.274Z,30.81
2022-11-18T09:41:48.508Z,30.92
2022-11-18T09:44:49.039Z,30.95
2022-11-18T09:47:27.956Z,30.90
2022-11-18T09:50:01.793Z,30.89
2022-11-18T09:52:49.215Z,30.82
2022-11-18T09:55:18.773Z,30.74
2022-11-18T09:57:49.309Z,30.68
2022-11-18T10:00:17.882Z,30.67
2022-11-18T10:03:15.316Z,30.60
2022-11-18T10:05:47.859Z,30.63
2022-11-18T10:08:31.632Z,30.65
2022-11-18T10:11:18.506Z,30.47
2022-11-18T10:14:23.976Z,30.21
2022-11-18T10:17:08.981Z,29.93
2022-11-18T10:19:56.728Z,29.51
2022-11-18T10:22:52.805Z,28.93
2022-11-18T10:25:20.144Z,28.16
2022-11-18T10:27:49.307Z,27.43
2022-11-18T10:30:25.361Z,26.68
2022-11-18T10:33:19.158Z,25.96
2022-11-18T10:35:46.001Z,25.32
2022-11-18T10:38:15.400Z,24.85
2022-11-18T10:41:13.095Z,24.36
2022-11-18T10:43:52.783Z,24.11
2022-11-18T10:46:34.968Z,23.95
2022-11-18T10:49:10.742Z,23.76
2022-11-18T10:52:14.221Z,23.55
2022-11-18T10:54:42.294Z,23.32
2022-11-18T10:57:19.627Z,23.06
2022-11-18T10:59:54.538Z,22.79
2022-11-18T11:02:39.921Z,22.40
2022-11-18T11:05:23.329Z,22.02
2022-11-18T11:08:36.409Z,21.59
2022-11-18T11:11:04.436Z,21.27
2022-11-18T11:13:34.308Z,21.02
2022-11-18T11:16:06.280Z,20.82
2022-11-18T11:18:41.401Z,20.66
2022-11-18T11:21:18.708Z,20.57
2022-11-18T11:23:46.744Z,20.58
2022-11-18T11:29:31.205Z,20.86
2022-11-18T11:32:20.457Z,21.10
2022-11-18T11:35:23.394Z,21.22
2022-11-18T11:38:00.982Z,21.23
2022-11-18T11:40:58.641Z,21.15
2022-11-18T11:43:49.386Z,21.04
2022-11-18T11:47:11.828Z,20.90
2022-11-18T11:50:00.553Z,20.65
2022-11-18T11:52:55.025Z,20.45
2022-11-18T11:56:30.151Z,20.14
2022-11-18T11:59:24.696Z,19.90
2022-11-18T12:02:41.710Z,19.66
2022-11-18T12:05:36.072Z,19.48
2022-11-18T12:08:16.828Z,19.37
2022-11-18T12:11:41.825Z,19.24
2022-11-18T12:14:50.744Z,19.06
2022-11-18T12:17:39.489Z,18.96
2022-11-18T12:20:49.766Z,18.88
2022-11-18T12:23:27.417Z,18.83
2022-11-18T12:26:11.115Z,18.80
2022-11-18T12:28:42.190Z,18.77
2022-11-18T12:31:18.247Z,18.73
2022-11-18T12:34:01.547Z,18.66
2022-11-18T12:36:35.149Z,18.61
2022-11-18T12:39:23.553Z,18.56
2022-11-18T12:42:21.262Z,18.52
2022-11-18T12:44:51.493Z,18.46
2022-11-18T12:47:47.388Z,18.41
2022-11-18T12:50:16.195Z,18.37
2022-11-18T12:52:42.881Z,18.32
2022-11-18T12:55:25.437Z,18.29
2022-11-18T12:57:52.574Z,18.23
2022-11-18T13:00:25.409Z,18.20
2022-11-18T13:02:59.984Z,18.17
2022-11-18T13:05:34.474Z,18.14
2022-11-18T13:08:14.303Z,18.11
2022-11-18T13:10:54.470Z,18.05
2022-11-18T13:13:33.738Z,18.01
2022-11-18T13:16:38.400Z,17.96
2022-11-18T13:19:05.652Z,17.87
2022-11-18T13:21:51.620Z,17.83
2022-11-18T13:24:22.045Z,17.74
2022-11-18T13:26:59.212Z,17.66
2022-11-18T13:30:02.382Z,17.57
2022-11-18T13:32:30.109Z,17.50
2022-11-18T13:35:15.040Z,17.49
2022-11-18T13:37:58.426Z,17.47
2022-11-18T13:40:37.988Z,17.42
2022-11-18T13:43:04.824Z,17.42
2022-11-18T13:45:34.590Z,17.43
2022-11-18T13:48:12.833Z,17.42
2022-11-18T13:50:52.610Z,17.41
2022-11-18T13:53:37.505Z,17.40
2022-11-18T13:56:07.699Z,17.37
2022-11-18T14:01:36.327Z,17.37
2022-11-18T14:04:08.143Z,17.39
2022-11-18T14:06:41.245Z,17.40
2022-11-18T14:09:25.764Z,17.44
2022-11-18T14:12:23.977Z,17.40
2022-11-18T14:14:51.532Z,17.41
2022-11-18T14:17:22.413Z,17.44
2022-11-18T14:19:55.471Z,17.47
2022-11-18T14:22:30.817Z,17.47
2022-11-18T14:25:14.257Z,17.45
2022-11-18T14:27:50.618Z,17.41
2022-11-18T14:30:36.330Z,17.41
2022-11-18T14:33:30.284Z,17.38
2022-11-18T14:36:13.974Z,17.35
2022-11-18T14:41:49.230Z,17.28
2022-11-18T14:44:18.551Z,17.24
2022-11-18T14:46:53.557Z,17.21
2022-11-18T14:49:24.017Z,17.19
2022-11-18T14:51:53.151Z,17.15
2022-11-18T14:54:26.821Z,17.14
2022-11-18T14:57:00.078Z,17.07
2022-11-18T14:59:26.992Z,17.03
2022-11-18T15:01:54.716Z,16.99
2022-11-18T15:04:22.014Z,16.93
2022-11-18T15:06:49.250Z,16.86
2022-11-18T15:09:16.351Z,16.82
2022-11-18T15:11:43.139Z,16.75
2022-11-18T15:14:10.035Z,16.71
2022-11-18T15:16:36.949Z,16.66
2022-11-18T15:19:05.779Z,16.62
2022-11-18T15:21:33.889Z,16.56
2022-11-18T15:24:00.632Z,16.50
2022-11-18T15:26:37.094Z,16.44
2022-11-18T15:29:04.863Z,16.36
2022-11-18T15:31:31.642Z,16.32
2022-11-18T15:34:03.453Z,16.29
2022-11-18T15:36:33.306Z,16.24
2022-11-18T15:39:00.101Z,16.21
2022-11-18T15:41:30.782Z,16.18
2022-11-18T15:44:01.182Z,16.12
2022-11-18T15:46:30.123Z,16.07
2022-11-18T15:49:00.687Z,16.03
2022-11-18T15:51:30.051Z,15.98
2022-11-18T15:53:57.200Z,15.93
2022-11-18T15:56:23.845Z,15.89
2022-11-18T15:59:00.108Z,15.82
2022-11-18T16:01:39.037Z,15.78
2022-11-18T16:04:10.111Z,15.72
2022-11-18T16:06:37.287Z,15.66
2022-11-18T16:09:06.489Z,15.63
2022-11-18T16:11:51.672Z,15.59
2022-11-18T16:14:21.631Z,15.55
2022-11-18T16:16:51.606Z,15.51
2022-11-18T16:19:22.384Z,15.47
2022-11-18T16:21:52.866Z,15.46
2022-11-18T16:24:26.284Z,15.44
2022-11-18T16:26:53.326Z,15.41
2022-11-18T16:29:20.740Z,15.40
2022-11-18T16:31:54.039Z,15.37
2022-11-18T16:34:28.191Z,15.35
2022-11-18T16:37:02.069Z,15.33
2022-11-18T16:39:29.532Z,15.30
2022-11-18T16:42:08.330Z,15.29
2022-11-18T16:44:36.842Z,15.27
2022-11-18T16:47:12.459Z,15.26
2022-11-18T16:49:41.341Z,15.24
2022-11-18T16:52:08.781Z,15.24
2022-11-18T16:54:41.072Z,15.20
2022-11-18T16:57:11.820Z,15.19
2022-11-18T16:59:38.553Z,15.18
2022-11-18T17:02:06.487Z,15.15
2022-11-18T17:04:36.131Z,15.16
2022-11-18T17:07:03.223Z,15.14
2022-11-18T17:09:30.136Z,15.12
2022-11-18T17:11:58.544Z,15.11
2022-11-18T17:14:25.905Z,15.09
2022-11-18T17:16:53.078Z,15.09
2022-11-18T17:19:24.034Z,15.09
2022-11-18T17:21:52.149Z,15.06
2022-11-18T17:24:22.332Z,15.06
2022-11-18T17:26:51.914Z,15.05
2022-11-18T17:29:18.892Z,15.03
2022-11-18T17:31:45.969Z,15.01
2022-11-18T17:34:14.524Z,15.00
2022-11-18T17:36:42.459Z,14.99
2022-11-18T17:39:11.962Z,14.97
2022-11-18T17:41:58.178Z,14.95
2022-11-18T17:44:25.246Z,14.90
2022-11-18T17:46:52.216Z,14.86
2022-11-18T17:49:21.232Z,14.82
2022-11-18T17:51:48.614Z,14.79
2022-11-18T17:54:16.124Z,14.76
2022-11-18T17:56:43.355Z,14.74
2022-11-18T17:59:10.138Z,14.71
2022-11-18T18:01:37.085Z,14.66
2022-11-18T18:04:04.048Z,14.62
2022-11-18T18:06:30.800Z,14.57
2022-11-18T18:08:58.641Z,14.50
2022-11-18T18:11:27.204Z,14.45
2022-11-18T18:14:13.136Z,14.39
2022-11-18T18:41:18.347Z,14.11
2022-11-18T19:52:28.326Z,13.05
2022-11-18T19:59:40.482Z,13.03
2022-11-18T20:02:11.707Z,13.02
2022-11-18T20:04:38.902Z,13.05
2022-11-18T20:07:05.748Z,13.23
2022-11-18T20:09:32.579Z,13.30
2022-11-18T20:11:59.512Z,13.25
2022-11-18T20:14:26.268Z,13.19
2022-11-18T20:16:53.197Z,13.16
2022-11-18T20:19:20.561Z,13.15
2022-11-18T20:21:48.769Z,13.16
2022-11-18T20:24:18.737Z,13.14
2022-11-18T20:26:46.052Z,13.14
2022-11-18T20:29:13.521Z,13.14
2022-11-18T20:31:40.991Z,13.13
2022-11-18T20:34:11.094Z,13.13
2022-11-18T20:36:37.972Z,13.11
2022-11-18T20:39:11.039Z,13.11
2022-11-18T20:41:37.977Z,13.09
2022-11-18T20:44:05.267Z,13.10
2022-11-18T20:46:34.337Z,13.09
2022-11-18T20:49:01.667Z,13.07
2022-11-18T20:51:29.498Z,13.08
2022-11-18T20:53:57.769Z,13.09
2022-11-18T20:56:27.337Z,13.08
2022-11-18T20:58:57.235Z,13.10
2022-11-18T21:01:28.051Z,13.09
2022-11-18T21:04:00.857Z,13.12
2022-11-18T21:06:30.994Z,13.10
2022-11-18T21:09:04.936Z,13.11
2022-11-18T21:11:35.742Z,13.12
2022-11-18T21:14:25.310Z,13.15
2022-11-18T21:17:00.574Z,13.14
2022-11-18T21:19:28.987Z,13.13
2022-11-18T21:21:56.899Z,13.14
2022-11-18T21:24:32.600Z,13.18
2022-11-18T21:27:01.154Z,13.15
2022-11-18T21:29:31.321Z,13.17
2022-11-18T21:32:02.364Z,13.14
2022-11-18T21:34:30.126Z,13.16
2022-11-18T21:36:57.202Z,13.15
2022-11-18T21:39:25.197Z,13.14
2022-11-18T21:41:56.149Z,13.13
2022-11-18T21:44:23.582Z,13.14
2022-11-18T21:46:50.370Z,13.14
2022-11-18T21:49:17.591Z,13.13
2022-11-18T21:51:45.417Z,13.16
2022-11-18T21:54:12.861Z,13.16
2022-11-18T21:56:39.795Z,13.17
2022-11-18T21:59:07.534Z,13.18
2022-11-18T22:01:34.643Z,13.18
2022-11-18T22:04:04.413Z,13.18
2022-11-18T22:06:33.797Z,13.18
2022-11-18T22:09:02.987Z,13.18
2022-11-18T22:11:30.217Z,13.18
2022-11-18T22:13:57.233Z,13.19
2022-11-18T22:16:25.859Z,13.21
2022-11-18T22:19:00.234Z,13.20
2022-11-18T22:21:28.120Z,13.20
2022-11-18T22:23:59.900Z,13.20
2022-11-18T22:26:27.936Z,13.19
2022-11-18T22:28:57.619Z,13.20
2022-11-18T22:31:27.192Z,13.20
2022-11-18T22:33:55.929Z,13.20
2022-11-18T22:36:26.010Z,13.20
2022-11-18T22:38:54.664Z,13.20
2022-11-18T22:41:43.904Z,13.20
2022-11-18T22:44:13.962Z,13.19
2022-11-18T22:46:42.988Z,13.18
2022-11-18T22:49:11.938Z,13.18
2022-11-18T22:51:50.263Z,13.17
2022-11-18T22:54:37.912Z,13.14
2022-11-18T22:57:09.805Z,13.10
2022-11-18T22:59:36.578Z,13.04
2022-11-18T23:02:03.366Z,13.03
2022-11-18T23:04:32.781Z,13.00
2022-11-18T23:06:59.542Z,12.96
2022-11-18T23:09:26.356Z,12.92
2022-11-18T23:12:11.797Z,12.91
2022-11-18T23:14:38.562Z,12.86
2022-11-18T23:17:05.635Z,12.85
2022-11-18T23:19:32.411Z,12.84
2022-11-18T23:21:59.211Z,12.85
2022-11-18T23:24:25.924Z,12.83
2022-11-18T23:26:52.612Z,12.82
2022-11-18T23:29:20.342Z,12.83
2022-11-18T23:31:47.319Z,12.82
2022-11-18T23:34:15.694Z,12.80
2022-11-18T23:36:43.098Z,12.78
2022-11-18T23:39:10.363Z,12.79
2022-11-18T23:41:37.412Z,12.79
2022-11-18T23:44:05.259Z,12.80
2022-11-18T23:46:33.092Z,12.82
2022-11-18T23:49:00.083Z,12.83
2022-11-18T23:51:26.813Z,12.85
2022-11-18T23:53:56.748Z,12.84
2022-11-18T23:56:27.007Z,12.84
2022-11-18T23:58:56.619Z,12.81
